Sisimiut, Greenland
Current Conditions -  °F | °C
As of 5:50 PM on Wednesday 26 Nov 2014 (Local Time) from BGSF Reporting Station
Clear Clear  
Wind Chill: -19°   Ceiling: Unl
Heat Index: -4°   Visibility: 6mi
Dew Point: -13°   Wind: 8mph
Humidity: 65%   Direction: 40°NE
Pressure: 29.44"   Gusts: NA
Location:  66.92°N, 53.66°W
Report Text: BGSF 261950Z AUTO 04007KT 9999NDV NCD M20/M25 Q0997
Loading
Personal Weather Stations






























Interactive Weather Map New forecast layout! Learn more

10-Day Weather Forecast

Advertisements
Track Severe Weather on mobile